• Join FlightAware (Why Join?)
  • Login
  • US Flag 
05:36AM EDT


 

Airport Tracker/Info


-or-


 

Live Flight TrackerFlight Track Log ✈ DAL3698 ✈ 01-May-2013 ✈ KLAN - KMSP

Flight Track Log - Related Links

Times and Time Zones

All times are in EDT time to prevent confusion due to time zone crossing. See the DAL3698 flight status page for this flight to view local times or setup timezone preferences in your user account.

Time Position Orientation Groundspeed Altitude Reporting Facility
EDT Latitude Longitude Course Direction KTS MPH feet Rate Location/Type
07:18AM 42.8136 -84.5289 279° West 210 242 2,700  Level Cleveland Center
07:19AM 42.8281 -84.5950 287° West 206 237 4,400 1,980 Climbing Cleveland Center
07:20AM 42.7494 -85.0966 283° West  Level FlightAware Approximate
07:20AM 42.8222 -84.7197 266° West 258 297 7,700  Level Chicago Center
07:21AM 42.7601 -85.2308 276° West  Level FlightAware Approximate
07:21AM 42.8178 -84.8242 267° West 272 313 10,300  Level Chicago Center
07:22AM 42.7715 -85.3649 278° West  Level FlightAware Approximate
07:22AM 42.8311 -84.9617 278° West 307 353 11,900  Level Chicago Center
07:23AM 42.7845 -85.4932 279° West  Level FlightAware Approximate
07:23AM 42.8433 -85.0936 277° West 341 392 13,700  Level Chicago Center
07:24AM 42.8564 -85.2256 278° West 350 403 15,500 1,560 Climbing Chicago Center
07:25AM 42.8692 -85.3617 277° West 358 412 17,000 1,380 Climbing Chicago Center
07:26AM 42.8831 -85.5003 278° West 366 421 18,400 960 Climbing Chicago Center
07:27AM 42.9036 -85.6408 281° West 380 437 19,000 240 Climbing Chicago Center
07:28AM 42.9519 -85.7833 295° West 409 471 19,000 60 Level Chicago Center
07:30AM 42.9969 -85.9367 292° West 433 498 19,200 540 Climbing Chicago Center
07:31AM 43.0072 -86.1111 275° West 433 498 20,200 1,020 Climbing Chicago Center
07:32AM 43.0169 -86.2678 275° West 416 479 21,300 1,020 Climbing Chicago Center
07:33AM 43.0256 -86.4231 274° West 412 474 22,300 960 Climbing Chicago Center
07:34AM 43.0358 -86.5778 275° West 410 472 23,300 900 Climbing Chicago Center
07:35AM 43.0825 -86.7211 294° West 416 479 24,200 660 Climbing Chicago Center
07:36AM 43.1281 -86.8647 294° West 415 478 24,700 480 Climbing Chicago Center
07:37AM 43.1861 -87.0397 295° West 422 486 25,300 540 Climbing Chicago Center
07:38AM 43.2347 -87.1869 294° West 424 488 25,800 480 Climbing Chicago Center
07:39AM 43.2819 -87.3364 294° West 425 489 26,300 480 Climbing Chicago Center
07:40AM 43.3267 -87.4831 293° West 424 488 26,800 480 Climbing Chicago Center
07:41AM 43.3750 -87.6325 294° West 427 491 27,300 480 Climbing Chicago Center
07:42AM 43.4300 -87.8086 293° West 427 491 27,900 300 Climbing Chicago Center
07:43AM 43.4769 -87.9592 293° West 428 493 28,000  Climbing Chicago Center
07:44AM 43.5253 -88.1128 294° West 435 501 28,000  Level Chicago Center
07:45AM 43.5733 -88.2681 293° West 442 509 28,000  Level Chicago Center
07:46AM 43.6211 -88.4225 293° West 443 510 28,000  Level Chicago Center
07:46AM 43.6525 -88.5253 293° West 445 512 28,000  Level Minneapolis Center
07:47AM 43.6997 -88.6811 293° West 445 512 28,000  Level Minneapolis Center
07:48AM 43.7461 -88.8378 292° West 443 510 28,000  Level Minneapolis Center
07:49AM 43.7689 -88.9167 292° West 442 509 28,000  Level Chicago Center
07:49AM 43.7933 -88.9931 294° West 439 505 28,000  Level Minneapolis Center
07:50AM 43.8381 -89.1514 291° West 441 507 28,000  Level Minneapolis Center
07:52AM 43.8850 -89.3069 293° West 438 504 28,000  Level Minneapolis Center
07:53AM 43.9308 -89.4642 292° West 439 505 28,000  Level Minneapolis Center
07:54AM 43.9794 -89.6206 293° West 441 507 28,000  Level Minneapolis Center
07:55AM 44.0347 -89.7717 297° West 441 507 28,000  Level Minneapolis Center
07:56AM 44.1064 -89.9772 296° West 442 509 28,000  Level Minneapolis Center
07:57AM 44.1586 -90.1317 295° West 442 509 28,000  Level Minneapolis Center
07:58AM 44.2117 -90.2856 296° West 440 506 28,000  Level Minneapolis Center
07:59AM 44.2647 -90.4406 296° West 442 509 28,000  Level Minneapolis Center
08:00AM 44.3181 -90.5939 296° West 441 507 28,000  Level Minneapolis Center
08:01AM 44.3703 -90.7497 295° West 442 509 28,000  Level Minneapolis Center
08:02AM 44.4242 -90.9128 295° West 441 507 28,000  Level Minneapolis Center
08:03AM 44.4764 -91.0667 295° West 440 506 28,000 -840 Level Minneapolis Center
08:04AM 44.5272 -91.2231 295° West 442 509 26,300 -2,040 Descending Minneapolis Center
08:05AM 44.5794 -91.3767 296° West 442 509 23,900 -2,280 Descending Minneapolis Center
08:06AM 44.6303 -91.5314 295° West 439 505 21,700 -2,100 Descending Minneapolis Center
08:07AM 44.6803 -91.6811 295° West 432 497 19,300 -2,220 Descending Minneapolis Center
08:08AM 44.7350 -91.8547 294° West 413 475 16,800 -2,340 Descending Minneapolis Center
08:09AM 44.7794 -91.9922 295° West 391 450 14,600 -2,280 Descending Minneapolis Center
08:10AM 44.8306 -92.1531 294° West 377 434 12,200 -2,100 Descending Minneapolis Center
08:11AM 44.8708 -92.2814 294° West 363 418 10,400 -1,140 Descending Minneapolis Center
08:12AM 44.8642 -92.4197 266° West 360 414 10,000 -360 Descending Minneapolis Center
08:13AM 44.8431 -92.5339 255° West 287 330 9,700 -780 Descending Minneapolis Center
08:14AM 44.8250 -92.6344 256° West 266 306 8,500 -1,200 Descending Minneapolis Center
08:15AM 44.8053 -92.7339 254° West 263 303 7,300 -1,320 Descending Minneapolis Center
08:16AM 44.7992 -92.8369 265° West 270 311 5,800 -1,320 Descending Minneapolis Center
08:18AM 44.7986 -92.9389 270° West 263 303 4,400 -1,080 Descending Minneapolis Center
08:19AM 44.8164 -93.0478 283° West 197 227 3,400 -960 Descending Minneapolis Center
08:20AM 44.8400 -93.0986 303° West 162 186 2,500 -900 Descending Minneapolis Center